This is the latest recevied weather packets stored in our database for station/object K1JO. If no packets are shown the sender has not sent any weather packets the latest 10 day(s).
| Time | Temp. | Humidity | Pressure | Rain* | Wind** | Luminosity | Snow |
|---|---|---|---|---|---|---|---|
| 1787441010 | 18.33° C | 97% | 1014.1 hPa | 3.05 mm | - | 10 W/m² | - |
| 1787440706 | 18.33° C | 97% | 1013.8 hPa | 3.05 mm | - | 10 W/m² | - |
| 1787440401 | 18.33° C | 96% | 1014 hPa | 0 mm | - | 15 W/m² | - |
| 1787440098 | 18.33° C | 96% | 1014.1 hPa | 3.05 mm | - | 15 W/m² | - |
| 1787439793 | 18.89° C | 96% | 1014.1 hPa | 4.83 mm | - | 15 W/m² | - |
| 1787439489 | 19.44° C | 94% | 1014.1 hPa | 0 mm | - | 15 W/m² | - |
| 1787439185 | 19.44° C | 92% | 1014.4 hPa | 0 mm | - | 20 W/m² | - |
| 1787438881 | 20° C | 88% | 1014.2 hPa | 0 mm | - | 29 W/m² | - |
| 1787438579 | 21.11° C | 82% | 1014.4 hPa | 0 mm | - | 34 W/m² | - |
| 1787438275 | 21.67° C | 78% | 1014.5 hPa | 0 mm | - | 40 W/m² | - |
| 1787437969 | 22.78° C | 74% | 1014.2 hPa | 0 mm | - | 69 W/m² | - |
| 1787437665 | 22.78° C | 74% | 1014.1 hPa | 0 mm | - | 69 W/m² | - |
| 1787437362 | 22.78° C | 74% | 1014 hPa | 0 mm | - | 69 W/m² | - |
| 1787437058 | 22.78° C | 73% | 1014.1 hPa | 0 mm | - | 64 W/m² | - |
| 1787436754 | 23.89° C | 66% | 1014.3 hPa | 0 mm | - | 84 W/m² | - |
| 1787436451 | 23.89° C | 66% | 1014 hPa | 0 mm | - | 84 W/m² | - |
| 1787436150 | 23.89° C | 66% | 1014.3 hPa | 0 mm | - | 84 W/m² | - |
| 1787435849 | 23.89° C | 66% | 1014.2 hPa | 0 mm | - | 84 W/m² | - |
| 1787435546 | 23.89° C | 64% | 1014.3 hPa | 0 mm | - | 115 W/m² | - |
| 1787435242 | 23.89° C | 64% | 1014.3 hPa | 0 mm | - | 115 W/m² | - |
| 1787434938 | 24.44° C | 64% | 1014.3 hPa | 0 mm | - | 116 W/m² | - |
| 1787434634 | 23.89° C | 64% | 1014.3 hPa | 0 mm | - | 120 W/m² | - |
| 1787434330 | 24.44° C | 65% | 1014.5 hPa | 0 mm | - | 140 W/m² | - |
| 1787434026 | 24.44° C | 65% | 1014.3 hPa | 0 mm | - | 140 W/m² | - |
| 1787433719 | 24.44° C | 64% | 1014.4 hPa | 0 mm | - | 143 W/m² | - |
* Rain latest hour (hover to see other rain measurements)
** Current wind speed in m/s (hover to see current wind gust speed)